Nearby METAR Reports

 

KVCT - Victoria, Texas, USA
Distance from station: E 12mi, 20km
Updated: 01/27/2020 12:51am
Clear
Clear
 Wind from ENE
Wind: ENE 7 mph , 11 km/h
Temperature: 54°F , 12°C
Dew Point: 48°F , 9°C
Humidity: 82%
Barometer: 30.00 inHg , 1015.9 hPa
Clouds: Clear
Visibility: 10 miles , 16 km
2020/01/27 06:51 KVCT 270651Z AUTO 07006KT 10SM CLR 12/09 A3000 RMK AO2 SLP158 T01220094
KPKV - Port Lavaca, Texas, USA
Distance from station: ESE 31mi, 50km
Updated: 01/20/2020 8:35am
NOT Current
Clear
Clear
 Wind from NE
Wind: NE 12 mph , 19 km/h
Temperature: 48°F , 9°C
Wind Chill: 43°F , 6°C
Dew Point: 37°F , 3°C
Humidity: 66%
Barometer: 30.59 inHg , 1035.9 hPa
Clouds: Clear
Visibility: 10 miles , 16 km
2020/01/20 14:35 KPKV 201435Z AUTO 04010KT 10SM CLR 09/03 A3059 RMK AO2 T00870025
 
KT20 - Gonzales Muni, Texas, USA
Distance from station: NNW 50mi, 81km
Updated: 01/27/2020 1:15am
Clear
Clear
 Wind from NE
Wind: NE 6 mph , 9 km/h
Temperature: 55°F , 13°C
Dew Point: 50°F , 10°C
Humidity: 82%
Barometer: 30.00 inHg , 1015.9 hPa
Clouds: Clear
Visibility: 10 miles , 16 km
2020/01/27 07:15 KT20 270715Z AUTO 05005KT 10SM CLR 13/10 A3000 RMK AO2 T01250098
KBEA - Beeville Muni, Texas, USA
Distance from station: SW 51mi, 83km
Updated: 10/22/2019 3:55am
NOT Current
Clear
Clear
 Wind from NNE
Wind: NNE 6 mph , 9 km/h
Temperature: 61°F , 16°C
Dew Point: 45°F , 7°C
Humidity: 55%
Barometer: 30.05 inHg , 1017.6 hPa
Clouds: Clear
Visibility: 10 miles , 16 km
2019/10/22 08:55 KBEA 220855Z AUTO 03005KT 10SM CLR 16/07 A3005 RMK AO2 T01560070
 
KRKP - Rockport, Texas, USA
Distance from station: S 53mi, 86km
Updated: 01/27/2020 12:53am
Fog, Overcast
Fog, Overcast
 Wind from calm
Wind: Calm
Temperature: 54°F , 12°C
Dew Point: 52°F , 11°C
Humidity: 94%
Barometer: 29.99 inHg , 1015.6 hPa
Summary: Fog
Clouds: Overcast
Visibility: 1/4 mile , 0.4 km
Cloud details: Overcast 200 ft
2020/01/27 06:53 KRKP 270653Z AUTO 00000KT 1/4SM FG VV002 12/11 A2999 RMK AO2 SLP155 T01220106
KPSX - Palacios, Texas, USA
Distance from station: E 55mi, 88km
Updated: 01/27/2020 12:53am
Fog, Overcast
Fog, Overcast
 Wind from NE
Wind: NE 3 mph , 6 km/h
Temperature: 57°F , 14°C
Dew Point: 55°F , 13°C
Humidity: 94%
Barometer: 30.00 inHg , 1015.9 hPa
Summary: Fog
Clouds: Overcast
Visibility: 1/4 mile , 0.4 km
Cloud details: Overcast 200 ft
2020/01/27 06:53 KPSX 270653Z AUTO 04003KT 1/4SM FG VV002 14/13 A3000 RMK AO2 SLP157 T01390133
 
KTFP - Ingleside/Tp Mcc, Texas, USA
Distance from station: S 65mi, 104km
Updated: 01/27/2020 1:15am
Fog, Mostly cloudy
Fog, Mostly cloudy
 Wind from S
Wind: S 3 mph , 6 km/h
Temperature: 54°F , 12°C
Dew Point: 54°F , 12°C
Humidity: 100%
Barometer: 29.98 inHg , 1015.2 hPa
Summary: Fog
Clouds: Mostly cloudy
Visibility: 1/4 mile , 0.4 km
Cloud details: Mostly cloudy 100 ft
2020/01/27 07:15 KTFP 270715Z AUTO 17003KT 1/4SM FG BKN001 12/12 A2998 RMK AO2 T01230120 PNO
K66R - Columbus, Texas, USA
Distance from station: NE 66mi, 106km
Updated: 01/27/2020 1:15am
Clear
Clear
 Wind from N
Wind: N 3 mph , 6 km/h
Temperature: 46°F , 8°C
Dew Point: 43°F , 6°C
Humidity: 87%
Barometer: 30.03 inHg , 1016.9 hPa
Clouds: Clear
Visibility: 10 miles , 16 km
2020/01/27 07:15 K66R 270715Z AUTO 36003KT 10SM CLR 08/06 A3003 RMK AO2 T00830060
 
KARM - Wharton, Texas, USA
Distance from station: ENE 66mi, 106km
Updated: 01/27/2020 1:10am
Clear
Clear
 Wind from N
Wind: N 3 mph , 6 km/h
Temperature: 52°F , 11°C
Dew Point: 46°F , 8°C
Humidity: 82%
Barometer: 30.01 inHg , 1016.3 hPa
Clouds: Clear
Visibility: 10 miles , 16 km
2020/01/27 07:10 KARM 270710Z AUTO 01003KT 10SM CLR 11/08 A3001 RMK AO2 T01050080
KRAS - Port Aransas, Texas, USA
Distance from station: S 71mi, 115km
Updated: 01/27/2020 1:15am
Mist, Overcast
Mist, Overcast
 Wind from S
Wind: S 3 mph , 6 km/h
Temperature: 61°F , 16°C
Dew Point: 59°F , 15°C
Humidity: 94%
Barometer: 30.00 inHg , 1015.9 hPa
Summary: Mist
Clouds: Overcast
Visibility: 3/4 mile , 1.2 km
Cloud details: Overcast 500 ft
2020/01/27 07:15 KRAS 270715Z AUTO 18003KT 3/4SM BR VV005 16/15 A3000 RMK AO2 T01550151
 
KELA - Eagle Lake, Texas, USA
Distance from station: NE 72mi, 115km
Updated: 01/27/2020 1:15am
Clear
Clear
 Wind from NNE
Wind: NNE 5 mph , 7 km/h
Temperature: 52°F , 11°C
Dew Point: 50°F , 10°C
Humidity: 94%
Barometer: 30.01 inHg , 1016.3 hPa
Clouds: Clear
Visibility: 10 miles , 16 km
2020/01/27 07:15 KELA 270715Z AUTO 03004KT 10SM CLR 11/10 A3001 RMK AO2 T01050095
K3T5 - La Grange, Texas, USA
Distance from station: N 73mi, 118km
Updated: 01/27/2020 1:15am
Clear
Clear
 Wind from calm
Wind: Calm
Temperature: 48°F , 9°C
Dew Point: 48°F , 9°C
Humidity: 100%
Barometer: 30.00 inHg , 1015.9 hPa
Clouds: Clear
Visibility: 10 miles , 16 km
2020/01/27 07:15 K3T5 270715Z AUTO 00000KT 10SM CLR 09/09 A3000 RMK AO2 T00920092
 
KBYY - Bay City, Texas, USA
Distance from station: E 77mi, 124km
Updated: 01/27/2020 1:15am
Fog, Overcast
Fog, Overcast
 Wind from calm
Wind: Calm
Temperature: 54°F , 12°C
Dew Point: 54°F , 12°C
Humidity: 100%
Barometer: 30.00 inHg , 1015.9 hPa
Summary: Fog
Clouds: Overcast
Visibility: 1/4 mile , 0.4 km
Cloud details: Overcast 200 ft
2020/01/27 07:15 KBYY 270715Z AUTO 00000KT 1/4SM FG OVC002 12/12 A3000 RMK AO2 T01240124
KCRP - Corpus Christi, Texas, USA
Distance from station: SSW 78mi, 126km
Updated: 01/27/2020 12:51am
Fog, Mostly cloudy
Fog, Mostly cloudy
 Wind from SSE
Wind: SSE 5 mph , 7 km/h
Temperature: 54°F , 12°C
Dew Point: 54°F , 12°C
Humidity: 100%
Barometer: 29.99 inHg , 1015.6 hPa
Summary: Fog
Clouds: Mostly cloudy
Visibility: 1/4 mile , 0.4 km
Cloud details: Mostly cloudy 0 ft
2020/01/27 06:51 KCRP 270651Z 15004KT 1/4SM R13/0800V1200FT FG BKN000 12/12 A2999 RMK AO2 SLP154 FG BKN000 T01170117 $
 
KNGP - C. Christi Nas, Texas, USA
Distance from station: S 81mi, 130km
Updated: 01/27/2020 12:56am
Fog, Clear
Fog, Clear
 Wind from SSE
Wind: SSE 5 mph , 7 km/h
Temperature: 55°F , 13°C
Dew Point: 55°F , 13°C
Humidity: 100%
Barometer: 29.98 inHg , 1015.2 hPa
Summary: Fog
Clouds: Clear
Visibility: 1/4 mile , 0.4 km
2020/01/27 06:56 KNGP 270656Z AUTO 16004KT 1/4SM FG CLR 13/13 A2998 RMK AO2 SLP153 T01330133 $
KRBO - Robstown/Nueces, Texas, USA
Distance from station: SSW 81mi, 130km
Updated: 01/27/2020 1:15am
Fog, Overcast
Fog, Overcast
 Wind from ESE
Wind: ESE 5 mph , 7 km/h
Temperature: 54°F , 12°C
Dew Point: 52°F , 11°C
Humidity: 94%
Barometer: 29.98 inHg , 1015.2 hPa
Summary: Fog
Clouds: Overcast
Visibility: 1/2 mile , 0.8 km
Cloud details: Overcast 100 ft
2020/01/27 07:15 KRBO 270715Z AUTO 11004KT 1/2SM FG OVC001 12/11 A2998 RMK AO2 T01210112
 
KBAZ - New Braunfels, Texas, USA
Distance from station: NW 81mi, 131km
Updated: 01/27/2020 12:51am
Clear
Clear
 Wind from NE
Wind: NE 7 mph , 11 km/h
Temperature: 54°F , 12°C
Dew Point: 48°F , 9°C
Humidity: 82%
Barometer: 30.00 inHg , 1015.9 hPa
Clouds: Clear
Visibility: 10 miles , 16 km
2020/01/27 06:51 KBAZ 270651Z AUTO 04006KT 10SM CLR 12/09 A3000 RMK AO2 SLP156 T01220089
KRND - Randolph Afb, Texas, USA
Distance from station: NW 82mi, 132km
Updated: 01/27/2020 12:56am
Clear
Clear
 Wind from NNE
Wind: NNE 3 mph , 6 km/h
Temperature: 55°F , 13°C
Dew Point: 48°F , 9°C
Humidity: 77%
Barometer: 30.01 inHg , 1016.3 hPa
Clouds: Clear
Visibility: 10 miles , 16 km
2020/01/27 06:56 KRND 270656Z AUTO 03003KT 10SM CLR 13/09 A3001 RMK AO2 SLP159 T01290088
 
KHYI - San Marcos, Texas, USA
Distance from station: NNW 84mi, 135km
Updated: 01/27/2020 12:56am
Clear
Clear
 Wind from N
Wind: N 6 mph , 9 km/h
Temperature: 48°F , 9°C
Wind Chill: 45°F , 7°C
Dew Point: 46°F , 8°C
Humidity: 94%
Barometer: 30.03 inHg , 1016.9 hPa
Clouds: Clear
Visibility: 10 miles , 16 km
2020/01/27 06:56 KHYI 270656Z AUTO 01005KT 10SM CLR 09/08 A3003 RMK AO2 SLP163 T00890078
KPEZ - Pleasanton Muni, Texas, USA
Distance from station: W 84mi, 135km
Updated: 01/27/2020 1:15am
Clear
Clear
 Wind from calm
Wind: Calm
Temperature: 50°F , 10°C
Dew Point: 45°F , 7°C
Humidity: 82%
Barometer: 30.01 inHg , 1016.3 hPa
Clouds: Clear
Visibility: 10 miles , 16 km
2020/01/27 07:15 KPEZ 270715Z AUTO 00000KT 10SM CLR 10/07 A3001 RMK AO2 T01040068